createdAt,value
2022-10-02T00:00:34.442Z,10.75
2022-10-02T00:03:22.542Z,9.55
2022-10-02T00:06:03.911Z,12.80
2022-10-02T00:08:35.876Z,11.07
2022-10-02T00:11:12.557Z,12.32
2022-10-02T00:13:59.259Z,9.82
2022-10-02T00:16:35.184Z,6.35
2022-10-02T00:19:03.119Z,11.63
2022-10-02T00:22:00.952Z,8.38
2022-10-02T00:24:39.159Z,6.97
2022-10-02T00:27:15.704Z,9.95
2022-10-02T00:29:52.467Z,8.60
2022-10-02T00:32:35.891Z,8.25
2022-10-02T00:35:41.112Z,9.70
2022-10-02T00:38:27.947Z,9.27
2022-10-02T00:41:03.725Z,4.18
2022-10-02T00:44:04.193Z,3.95
2022-10-02T00:46:57.266Z,6.78
2022-10-02T00:49:36.763Z,7.55
2022-10-02T00:52:21.458Z,4.25
2022-10-02T00:54:58.746Z,5.95
2022-10-02T00:57:40.787Z,7.88
2022-10-02T01:00:21.412Z,4.25
2022-10-02T01:03:12.259Z,7.47
2022-10-02T01:05:40.118Z,10.90
2022-10-02T01:08:07.667Z,5.65
2022-10-02T01:10:37.149Z,5.20
2022-10-02T01:13:04.093Z,6.40
2022-10-02T01:15:36.089Z,8.55
2022-10-02T01:18:04.287Z,12.75
2022-10-02T01:20:38.962Z,7.30
2022-10-02T01:23:24.891Z,4.82
2022-10-02T01:25:51.907Z,13.23
2022-10-02T01:28:19.311Z,8.70
2022-10-02T01:30:51.269Z,11.65
2022-10-02T01:33:19.565Z,10.73
2022-10-02T01:35:46.634Z,10.00
2022-10-02T01:38:18.744Z,3.97
2022-10-02T01:40:45.667Z,5.65
2022-10-02T01:43:16.666Z,12.85
2022-10-02T01:46:21.635Z,6.90
2022-10-02T01:49:16.170Z,11.88
2022-10-02T01:52:08.706Z,9.38
2022-10-02T01:55:13.885Z,11.38
2022-10-02T01:58:21.096Z,7.18
2022-10-02T02:01:15.445Z,8.40
2022-10-02T02:03:56.583Z,5.15
2022-10-02T02:06:41.620Z,10.10
2022-10-02T02:09:20.623Z,16.52
2022-10-02T02:12:08.936Z,11.40
2022-10-02T02:14:48.184Z,16.05
2022-10-02T02:17:25.134Z,14.73
2022-10-02T02:20:04.291Z,20.73
2022-10-02T02:22:37.088Z,20.75
2022-10-02T02:25:08.812Z,22.13
2022-10-02T02:27:41.847Z,29.80
2022-10-02T02:30:12.616Z,17.13
2022-10-02T02:32:46.316Z,17.60
2022-10-02T02:35:21.920Z,23.50
2022-10-02T02:37:53.231Z,23.85
2022-10-02T02:40:25.893Z,22.70
2022-10-02T02:43:09.151Z,15.35
2022-10-02T02:45:42.818Z,22.67
2022-10-02T02:48:25.877Z,12.38
2022-10-02T02:51:08.649Z,19.77
2022-10-02T02:53:54.324Z,22.33
2022-10-02T02:56:22.667Z,24.23
2022-10-02T02:59:09.285Z,19.10
2022-10-02T03:01:36.415Z,20.67
2022-10-02T03:04:03.992Z,24.88
2022-10-02T03:06:45.420Z,31.63
2022-10-02T03:09:18.715Z,23.77
2022-10-02T03:12:33.254Z,25.17
2022-10-02T03:15:30.054Z,22.40
2022-10-02T03:18:20.698Z,33.47
2022-10-02T03:21:19.077Z,24.75
2022-10-02T03:24:01.957Z,27.88
2022-10-02T03:26:45.307Z,25.80
2022-10-02T03:29:22.064Z,26.33
2022-10-02T03:31:49.964Z,29.30
2022-10-02T03:34:18.221Z,30.33
2022-10-02T03:36:46.397Z,27.42
2022-10-02T03:39:24.841Z,27.80
2022-10-02T03:41:53.930Z,23.02
2022-10-02T03:44:20.989Z,28.42
2022-10-02T03:46:47.988Z,35.25
2022-10-02T03:49:14.910Z,28.65
2022-10-02T03:51:41.865Z,31.55
2022-10-02T03:54:21.047Z,23.52
2022-10-02T03:56:56.785Z,23.98
2022-10-02T04:02:21.734Z,33.25
2022-10-02T04:04:56.668Z,24.77
2022-10-02T04:07:33.087Z,26.25
2022-10-02T04:10:43.050Z,23.20
2022-10-02T04:13:32.421Z,24.23
2022-10-02T04:16:11.237Z,32.70
2022-10-02T04:19:18.909Z,19.88
2022-10-02T04:22:07.890Z,23.23
2022-10-02T04:24:47.809Z,18.42
2022-10-02T04:27:42.112Z,26.05
2022-10-02T04:30:18.510Z,16.98
2022-10-02T04:32:46.025Z,25.60
2022-10-02T04:35:50.113Z,37.97
2022-10-02T04:39:02.515Z,22.92
2022-10-02T04:42:03.490Z,28.40
2022-10-02T04:45:01.732Z,34.72
2022-10-02T04:47:37.742Z,30.10
2022-10-02T04:50:14.400Z,28.58
2022-10-02T04:53:14.935Z,22.50
2022-10-02T04:56:19.105Z,16.13
2022-10-02T04:59:11.942Z,22.95
2022-10-02T05:02:10.876Z,24.80
2022-10-02T05:05:08.870Z,20.15
2022-10-02T05:08:12.006Z,30.08
2022-10-02T05:10:53.903Z,20.67
2022-10-02T05:14:13.441Z,18.58
2022-10-02T05:16:59.890Z,17.10
2022-10-02T05:19:57.231Z,25.15
2022-10-02T05:23:11.341Z,26.77
2022-10-02T05:25:46.954Z,26.55
2022-10-02T05:28:48.801Z,27.88
2022-10-02T05:31:52.227Z,17.83
2022-10-02T05:34:38.197Z,16.00
2022-10-02T05:37:42.352Z,22.92
2022-10-02T05:40:21.666Z,19.25
2022-10-02T05:42:57.095Z,16.42
2022-10-02T05:45:37.651Z,16.85
2022-10-02T05:48:24.369Z,27.83
2022-10-02T05:50:59.607Z,24.58
2022-10-02T05:53:38.803Z,27.92
2022-10-02T05:56:16.547Z,32.55
2022-10-02T05:59:18.495Z,26.20
2022-10-02T06:01:50.214Z,26.27
2022-10-02T06:04:37.739Z,31.08
2022-10-02T06:07:15.586Z,23.23
2022-10-02T06:09:51.937Z,35.35
2022-10-02T06:12:39.248Z,23.70
2022-10-02T06:15:16.022Z,26.63
2022-10-02T06:17:51.742Z,34.97
2022-10-02T06:23:27.992Z,25.33
2022-10-02T06:26:00.983Z,21.27
2022-10-02T06:28:52.137Z,30.05
2022-10-02T06:31:43.714Z,21.63
2022-10-02T06:34:14.595Z,21.95
2022-10-02T06:36:50.335Z,26.33
2022-10-02T06:42:39.832Z,19.17
2022-10-02T06:45:18.252Z,27.15
2022-10-02T06:48:31.152Z,18.92
2022-10-02T06:51:10.384Z,29.73
2022-10-02T06:54:12.352Z,14.32
2022-10-02T06:56:58.927Z,18.30
2022-10-02T06:59:46.831Z,19.42
2022-10-02T07:02:41.087Z,16.52
2022-10-02T07:05:48.152Z,24.02
2022-10-02T07:11:26.623Z,14.27
2022-10-02T07:14:20.609Z,18.40
2022-10-02T07:17:24.920Z,23.52
2022-10-02T07:20:33.660Z,20.95
2022-10-02T07:24:01.411Z,12.70
2022-10-02T07:26:49.747Z,17.67
2022-10-02T07:29:53.605Z,22.60
2022-10-02T07:32:26.164Z,15.77
2022-10-02T07:35:20.339Z,21.73
2022-10-02T07:38:23.825Z,23.02
2022-10-02T07:41:16.762Z,15.07
2022-10-02T07:44:39.360Z,16.92
2022-10-02T07:47:37.907Z,16.80
2022-10-02T07:50:52.341Z,22.42
2022-10-02T07:53:30.980Z,17.55
2022-10-02T07:55:59.182Z,17.88
2022-10-02T07:58:39.602Z,17.35
2022-10-02T08:01:16.582Z,19.15
2022-10-02T08:04:10.582Z,15.65
2022-10-02T08:06:38.319Z,10.63
2022-10-02T08:10:12.466Z,15.75
2022-10-02T08:13:00.507Z,11.27
2022-10-02T08:15:35.285Z,14.82
2022-10-02T08:18:38.563Z,10.40
2022-10-02T08:21:14.448Z,8.95
2022-10-02T08:24:36.756Z,17.05
2022-10-02T08:27:15.583Z,6.80
2022-10-02T08:29:53.160Z,13.48
2022-10-02T08:32:22.744Z,13.02
2022-10-02T08:34:50.192Z,18.27
2022-10-02T08:38:10.257Z,20.27
2022-10-02T08:41:29.257Z,17.48
2022-10-02T08:44:36.271Z,15.18
2022-10-02T08:47:22.832Z,10.80
2022-10-02T08:50:30.225Z,23.10
2022-10-02T08:53:32.329Z,9.57
2022-10-02T08:56:14.428Z,7.38
2022-10-02T08:58:53.993Z,15.85
2022-10-02T09:02:11.879Z,20.17
2022-10-02T09:05:29.036Z,10.50
2022-10-02T09:08:37.103Z,16.60
2022-10-02T09:11:53.481Z,14.55
2022-10-02T09:14:48.994Z,18.88
2022-10-02T09:17:45.481Z,14.17
2022-10-02T09:23:56.811Z,8.00
2022-10-02T09:27:08.242Z,8.50
2022-10-02T09:30:05.508Z,13.98
2022-10-02T09:33:16.303Z,8.93
2022-10-02T09:36:24.759Z,20.10
2022-10-02T09:39:32.882Z,15.63
2022-10-02T09:42:53.316Z,8.35
2022-10-02T09:45:44.042Z,12.48
2022-10-02T09:48:51.949Z,12.38
2022-10-02T09:51:56.461Z,11.02
2022-10-02T09:55:22.287Z,12.45
2022-10-02T09:58:17.047Z,10.63
2022-10-02T10:01:04.758Z,6.72
2022-10-02T10:04:24.229Z,17.10
2022-10-02T10:07:20.449Z,13.05
2022-10-02T10:10:38.152Z,7.35
2022-10-02T10:13:42.432Z,9.27
2022-10-02T10:16:45.466Z,9.48
2022-10-02T10:20:17.491Z,7.72
2022-10-02T10:23:31.744Z,4.45
2022-10-02T10:26:34.558Z,4.80
2022-10-02T10:29:31.853Z,14.32
2022-10-02T10:32:14.508Z,13.30
2022-10-02T10:34:53.887Z,11.23
2022-10-02T10:38:07.528Z,9.32
2022-10-02T10:41:11.031Z,15.32
2022-10-02T10:44:27.385Z,7.47
2022-10-02T10:47:35.316Z,8.17
2022-10-02T10:50:42.510Z,9.10
2022-10-02T10:54:02.052Z,10.32
2022-10-02T10:56:39.514Z,11.45
2022-10-02T10:59:38.045Z,5.40
2022-10-02T11:02:54.648Z,10.18
2022-10-02T11:05:49.669Z,8.95
2022-10-02T11:08:39.777Z,7.13
2022-10-02T11:11:39.462Z,10.15
2022-10-02T11:14:50.590Z,9.13
2022-10-02T11:17:44.340Z,9.77
2022-10-02T11:20:42.479Z,7.30
2022-10-02T11:23:34.155Z,5.35
2022-10-02T11:26:35.975Z,11.00
2022-10-02T11:29:55.099Z,9.30
2022-10-02T11:32:51.490Z,8.77
2022-10-02T11:38:23.011Z,6.22
2022-10-02T11:41:39.223Z,6.78
2022-10-02T11:44:17.718Z,8.98
2022-10-02T11:47:08.652Z,11.23
2022-10-02T11:50:01.141Z,16.67
2022-10-02T11:52:54.951Z,12.52
2022-10-02T11:55:53.240Z,7.10
2022-10-02T11:58:53.550Z,10.95
2022-10-02T12:01:45.592Z,8.30
2022-10-02T12:04:42.058Z,6.45
2022-10-02T12:10:16.275Z,6.47
2022-10-02T12:13:10.495Z,6.53
2022-10-02T12:15:52.615Z,10.43
2022-10-02T12:18:59.803Z,8.02
2022-10-02T12:22:03.664Z,7.70
2022-10-02T12:25:03.291Z,8.93
2022-10-02T12:27:45.978Z,7.85
2022-10-02T12:30:15.676Z,4.63
2022-10-02T12:33:14.535Z,6.63
2022-10-02T12:35:57.888Z,21.20
2022-10-02T12:39:00.894Z,8.60
2022-10-02T12:42:20.397Z,9.20
2022-10-02T12:45:11.828Z,10.70
2022-10-02T12:48:01.523Z,6.15
2022-10-02T12:51:35.398Z,10.23
2022-10-02T12:54:36.044Z,9.48
2022-10-02T12:57:38.788Z,11.95
2022-10-02T13:00:14.502Z,12.75
2022-10-02T13:03:01.307Z,9.95
2022-10-02T13:06:03.502Z,4.93
2022-10-02T13:09:00.745Z,8.90
2022-10-02T13:11:36.810Z,4.57
2022-10-02T13:14:40.044Z,7.13
2022-10-02T13:17:35.920Z,11.95
2022-10-02T13:20:20.756Z,7.57
2022-10-02T13:23:31.953Z,6.60
2022-10-02T13:26:13.672Z,9.00
2022-10-02T13:29:21.059Z,6.57
2022-10-02T13:32:26.103Z,11.63
2022-10-02T13:35:22.560Z,10.45
2022-10-02T13:40:56.662Z,8.10
2022-10-02T13:44:07.210Z,9.23
2022-10-02T13:46:55.158Z,11.73
2022-10-02T13:50:02.190Z,11.15
2022-10-02T13:52:56.651Z,6.90
2022-10-02T13:55:34.608Z,7.93
2022-10-02T13:58:28.667Z,7.38
2022-10-02T14:01:21.730Z,9.25
2022-10-02T14:04:23.435Z,5.15
2022-10-02T14:06:55.468Z,7.55
2022-10-02T14:09:43.239Z,14.40
2022-10-02T14:12:27.930Z,9.52
2022-10-02T14:15:15.651Z,6.93
2022-10-02T14:17:52.419Z,7.20
2022-10-02T14:20:58.912Z,9.13
2022-10-02T14:23:59.443Z,9.65
2022-10-02T14:26:52.539Z,10.32
2022-10-02T14:29:26.039Z,7.85
2022-10-02T14:32:23.168Z,8.35
2022-10-02T14:35:22.707Z,3.78
2022-10-02T14:38:09.877Z,8.60
2022-10-02T14:40:53.425Z,7.55
2022-10-02T14:43:50.084Z,9.48
2022-10-02T14:46:51.467Z,8.38
2022-10-02T14:49:53.997Z,9.20
2022-10-02T14:52:48.107Z,10.05
2022-10-02T14:55:30.824Z,9.82
2022-10-02T14:58:20.692Z,8.90
2022-10-02T15:01:06.621Z,8.13
2022-10-02T15:06:26.253Z,10.93
2022-10-02T15:09:00.582Z,8.25
2022-10-02T15:12:11.816Z,7.20
2022-10-02T15:14:54.684Z,12.63
2022-10-02T15:17:55.959Z,8.00
2022-10-02T15:20:31.085Z,7.13
2022-10-02T15:23:09.745Z,7.70
2022-10-02T15:26:01.423Z,9.60
2022-10-02T15:28:54.266Z,8.55
2022-10-02T15:32:20.418Z,7.15
2022-10-02T15:35:19.585Z,6.35
2022-10-02T15:38:34.190Z,12.02
2022-10-02T15:41:18.666Z,10.18
2022-10-02T15:44:14.403Z,6.13
2022-10-02T15:47:07.522Z,9.38
2022-10-02T15:50:09.032Z,12.65
2022-10-02T15:53:16.470Z,10.05
2022-10-02T15:55:55.925Z,7.97
2022-10-02T15:59:23.480Z,12.20
2022-10-02T16:02:03.959Z,11.07
2022-10-02T16:04:57.087Z,9.88
2022-10-02T16:07:51.152Z,5.57
2022-10-02T16:10:37.862Z,7.63
2022-10-02T16:13:28.874Z,8.48
2022-10-02T16:16:22.259Z,9.55
2022-10-02T16:19:23.141Z,10.60
2022-10-02T16:22:36.539Z,9.43
2022-10-02T16:25:03.484Z,6.22
2022-10-02T16:28:13.820Z,9.93
2022-10-02T16:30:49.926Z,11.32
2022-10-02T16:33:44.060Z,18.08
2022-10-02T16:36:34.725Z,11.77
2022-10-02T16:39:16.220Z,9.30
2022-10-02T16:41:59.901Z,11.02
2022-10-02T16:44:48.196Z,7.95
2022-10-02T16:47:46.102Z,10.38
2022-10-02T16:50:30.763Z,14.13
2022-10-02T16:53:11.946Z,6.65
2022-10-02T16:55:45.810Z,12.25
2022-10-02T16:58:26.192Z,6.95
2022-10-02T17:01:07.233Z,4.50
2022-10-02T17:04:05.137Z,18.98
2022-10-02T17:06:48.766Z,12.93
2022-10-02T17:09:44.101Z,13.52
2022-10-02T17:12:31.720Z,17.48
2022-10-02T17:15:22.298Z,6.60
2022-10-02T17:18:33.767Z,13.07
2022-10-02T17:21:22.680Z,7.70
2022-10-02T17:24:40.041Z,8.23
2022-10-02T17:33:22.391Z,11.40
2022-10-02T17:36:01.755Z,8.30
2022-10-02T17:38:54.512Z,12.23
2022-10-02T17:41:47.098Z,9.43
2022-10-02T17:44:24.688Z,13.43
2022-10-02T17:47:09.889Z,9.07
2022-10-02T17:49:55.247Z,10.43
2022-10-02T17:52:56.724Z,13.45
2022-10-02T17:55:57.278Z,8.43
2022-10-02T17:58:45.937Z,9.38
2022-10-02T18:01:46.431Z,8.10
2022-10-02T18:04:38.022Z,7.70
2022-10-02T18:07:54.991Z,18.73
2022-10-02T18:10:31.069Z,14.43
2022-10-02T18:13:14.652Z,14.30
2022-10-02T18:16:32.372Z,8.52
2022-10-02T18:19:45.206Z,14.35
2022-10-02T18:22:55.728Z,8.52
2022-10-02T18:25:53.361Z,14.02
2022-10-02T18:28:39.878Z,5.18
2022-10-02T18:31:54.834Z,9.02
2022-10-02T18:34:48.628Z,12.35
2022-10-02T18:37:40.910Z,8.93
2022-10-02T18:40:29.777Z,9.32
2022-10-02T18:43:15.515Z,12.65
2022-10-02T18:46:20.444Z,12.45
2022-10-02T18:49:37.510Z,10.85
2022-10-02T18:52:38.510Z,6.78
2022-10-02T18:55:21.797Z,11.73
2022-10-02T18:58:45.567Z,11.40
2022-10-02T19:01:39.667Z,9.00
2022-10-02T19:04:35.943Z,12.27
2022-10-02T19:07:38.266Z,6.78
2022-10-02T19:10:34.371Z,18.88
2022-10-02T19:13:12.657Z,14.57
2022-10-02T19:15:47.044Z,10.68
2022-10-02T19:18:25.982Z,8.43
2022-10-02T19:20:58.619Z,7.13
2022-10-02T19:23:51.397Z,11.65
2022-10-02T19:26:23.547Z,9.77
2022-10-02T19:29:20.087Z,13.65
2022-10-02T19:34:22.148Z,13.48
2022-10-02T19:36:54.412Z,11.18
2022-10-02T19:39:33.299Z,8.18
2022-10-02T19:42:07.916Z,4.65
2022-10-02T19:44:42.040Z,13.18
2022-10-02T19:47:32.765Z,9.27
2022-10-02T19:50:02.357Z,6.63
2022-10-02T19:52:57.950Z,11.98
2022-10-02T19:55:37.142Z,10.25
2022-10-02T19:58:20.856Z,12.68
2022-10-02T20:00:53.263Z,9.25
2022-10-02T20:03:23.430Z,9.93
2022-10-02T20:05:55.845Z,10.23
2022-10-02T20:08:30.029Z,14.98
2022-10-02T20:11:15.240Z,8.00
2022-10-02T20:13:53.387Z,10.60
2022-10-02T20:16:44.223Z,12.02
2022-10-02T20:19:20.463Z,11.77
2022-10-02T20:21:56.261Z,12.25
2022-10-02T20:27:44.913Z,10.27
2022-10-02T20:30:19.242Z,8.55
2022-10-02T20:33:31.163Z,6.65
2022-10-02T20:36:23.233Z,11.38
2022-10-02T20:39:00.792Z,17.02
2022-10-02T20:41:41.515Z,7.75
2022-10-02T20:44:08.569Z,6.07
2022-10-02T20:47:09.441Z,6.65
2022-10-02T20:49:53.869Z,11.00
2022-10-02T20:52:55.032Z,12.13
2022-10-02T20:55:56.846Z,7.28
2022-10-02T20:59:03.548Z,10.27
2022-10-02T21:02:05.338Z,8.73
2022-10-02T21:04:57.896Z,17.58
2022-10-02T21:07:37.461Z,8.57
2022-10-02T21:10:40.595Z,9.13
2022-10-02T21:13:35.253Z,6.65
2022-10-02T21:16:20.896Z,12.48
2022-10-02T21:19:18.755Z,14.13
2022-10-02T21:22:05.415Z,12.32
2022-10-02T21:25:18.239Z,13.95
2022-10-02T21:28:14.119Z,11.88
2022-10-02T21:31:14.367Z,10.95
2022-10-02T21:33:51.923Z,16.63
2022-10-02T21:36:31.449Z,7.80
2022-10-02T21:39:44.423Z,15.70
2022-10-02T21:43:09.934Z,11.15
2022-10-02T21:46:34.119Z,10.23
2022-10-02T21:49:42.026Z,13.57
2022-10-02T21:52:58.802Z,10.75
2022-10-02T21:55:47.514Z,18.95
2022-10-02T21:58:23.292Z,11.70
2022-10-02T22:04:21.749Z,19.20
2022-10-02T22:06:57.255Z,15.75
2022-10-02T22:09:31.150Z,11.40
2022-10-02T22:12:26.168Z,7.82
2022-10-02T22:15:17.186Z,16.20
2022-10-02T22:18:01.325Z,13.07
2022-10-02T22:20:50.836Z,11.95
2022-10-02T22:23:42.198Z,7.13
2022-10-02T22:26:53.596Z,15.13
2022-10-02T22:29:45.118Z,14.63
2022-10-02T22:32:48.746Z,9.23
2022-10-02T22:35:30.359Z,15.65
2022-10-02T22:38:18.877Z,14.30
2022-10-02T22:40:52.290Z,15.68
2022-10-02T22:43:30.758Z,12.75
2022-10-02T22:46:03.049Z,14.05
2022-10-02T22:48:39.852Z,11.60
2022-10-02T22:51:34.228Z,16.13
2022-10-02T22:54:33.331Z,17.67
2022-10-02T22:57:03.504Z,13.68
2022-10-02T22:59:58.475Z,11.05
2022-10-02T23:02:46.067Z,15.25
2022-10-02T23:05:50.731Z,10.38
2022-10-02T23:08:34.571Z,17.35
2022-10-02T23:11:21.720Z,14.13
2022-10-02T23:14:15.054Z,8.80
2022-10-02T23:17:06.149Z,19.65
2022-10-02T23:19:55.699Z,11.75
2022-10-02T23:23:13.916Z,12.48
2022-10-02T23:25:50.444Z,10.38
2022-10-02T23:28:25.351Z,15.80
2022-10-02T23:31:16.297Z,15.00
2022-10-02T23:34:26.043Z,11.70
2022-10-02T23:37:02.932Z,11.30
2022-10-02T23:39:45.358Z,9.68
2022-10-02T23:42:19.355Z,12.82
2022-10-02T23:44:56.235Z,12.27
2022-10-02T23:47:54.993Z,9.00
2022-10-02T23:50:39.367Z,11.85
2022-10-02T23:53:47.614Z,9.63
2022-10-02T23:56:22.431Z,16.17
2022-10-02T23:59:19.073Z,13.53
